Time;durP1;ratioP1;P1;durP2;ratioP2;P2;SDS_P1;SDS_P2;PMS_P1;PMS_P2;Temp;Humidity;BMP_temperature;BMP_pressure;BME280_temperature;BME280_humidity;BME280_pressure;Samples;Min_cycle;Max_cycle;Signal;HPM_P1;HPM_P2
2021/12/04 00:00:51;;;;;;;57.37;30.43;;;6.00;99.90;;;;;;4989082;28;20204;-82
2021/12/04 00:03:18;;;;;;;63.97;34.10;;;6.00;99.90;;;;;;4991950;28;20211;-83
2021/12/04 00:05:48;;;;;;;64.53;34.87;;;6.00;99.90;;;;;;4987809;28;20239;-83
2021/12/04 00:08:15;;;;;;;62.60;34.47;;;6.00;99.90;;;;;;4991637;28;20199;-82
2021/12/04 00:10:42;;;;;;;63.43;33.97;;;6.00;99.90;;;;;;4992292;28;20199;-83
2021/12/04 00:13:08;;;;;;;72.97;36.67;;;5.90;99.90;;;;;;4991473;28;20215;-83
2021/12/04 00:15:35;;;;;;;70.67;33.80;;;5.90;99.90;;;;;;4990886;28;20212;-80
2021/12/04 00:18:04;;;;;;;65.20;33.97;;;5.90;99.90;;;;;;4991068;28;20619;-83
2021/12/04 00:20:31;;;;;;;70.53;35.13;;;5.90;99.90;;;;;;4991028;28;20207;-82
2021/12/04 00:22:59;;;;;;;77.30;36.90;;;5.90;99.90;;;;;;4991004;28;20244;-81
2021/12/04 00:25:27;;;;;;;68.60;34.07;;;5.90;99.90;;;;;;4990615;28;20204;-83
2021/12/04 00:27:54;;;;;;;61.33;34.30;;;5.90;99.90;;;;;;4991292;28;20318;-83
2021/12/04 00:30:21;;;;;;;74.97;35.17;;;5.90;99.90;;;;;;4990876;28;20496;-83
2021/12/04 00:32:56;;;;;;;82.63;36.10;;;5.90;99.90;;;;;;4991143;28;20592;-82
2021/12/04 00:35:34;;;;;;;87.53;36.77;;;5.90;99.90;;;;;;4978003;28;20303;-83
2021/12/04 00:51:37;;;;;;;80.10;36.47;;;5.90;99.90;;;;;;4990359;28;20242;-81
2021/12/04 00:54:05;;;;;;;87.47;37.10;;;5.90;99.90;;;;;;4990101;28;20212;-83
2021/12/04 00:56:32;;;;;;;71.73;36.60;;;5.90;99.90;;;;;;4990466;28;20326;-81
2021/12/04 00:59:00;;;;;;;91.73;39.53;;;5.90;99.90;;;;;;4990073;28;20555;-83
2021/12/04 01:01:26;;;;;;;74.57;35.13;;;5.80;99.90;;;;;;4990414;28;20532;-82
2021/12/04 01:03:53;;;;;;;82.90;38.03;;;5.90;99.90;;;;;;4990130;28;20219;-81
2021/12/04 01:06:20;;;;;;;78.17;36.13;;;5.90;99.90;;;;;;4989830;28;20519;-81
2021/12/04 01:08:49;;;;;;;87.70;37.07;;;5.90;99.90;;;;;;4990276;28;20626;-83
2021/12/04 01:11:17;;;;;;;79.57;38.03;;;5.90;99.90;;;;;;4990484;28;20192;-82
2021/12/04 01:13:45;;;;;;;74.40;36.17;;;5.90;99.90;;;;;;4990478;28;20510;-85
2021/12/04 01:16:12;;;;;;;87.37;36.87;;;5.90;99.90;;;;;;4991066;28;20207;-83
2021/12/04 01:18:39;;;;;;;76.80;36.43;;;5.90;99.90;;;;;;4990725;28;20254;-84
2021/12/04 01:21:05;;;;;;;81.73;36.70;;;5.90;99.90;;;;;;4990836;28;20200;-83
2021/12/04 01:23:32;;;;;;;87.13;37.97;;;5.90;99.90;;;;;;4990365;28;20211;-84
2021/12/04 01:26:00;;;;;;;92.33;39.87;;;5.90;99.90;;;;;;4990619;28;20212;-84
2021/12/04 01:28:27;;;;;;;82.33;37.73;;;5.90;99.90;;;;;;4989685;28;20263;-83
2021/12/04 01:30:54;;;;;;;89.07;39.17;;;5.90;99.90;;;;;;4990521;28;20204;-80
2021/12/04 01:33:21;;;;;;;106.07;40.80;;;5.90;99.90;;;;;;4987136;28;20225;-85
2021/12/04 01:35:48;;;;;;;84.20;37.53;;;5.90;99.90;;;;;;4990749;28;20216;-84
2021/12/04 01:38:14;;;;;;;80.80;36.07;;;5.90;99.90;;;;;;4990884;28;20215;-84
2021/12/04 01:40:43;;;;;;;88.00;39.73;;;5.90;99.90;;;;;;4990667;28;20282;-81
2021/12/04 01:43:11;;;;;;;91.40;39.07;;;5.90;99.90;;;;;;4989822;28;20219;-82
2021/12/04 01:45:38;;;;;;;80.60;37.10;;;5.90;99.90;;;;;;4990489;28;20219;-83
2021/12/04 01:48:05;;;;;;;91.47;39.03;;;5.90;99.90;;;;;;4990698;28;20227;-83
2021/12/04 01:50:34;;;;;;;99.93;40.73;;;5.90;99.90;;;;;;4989805;28;20211;-84
2021/12/04 01:53:02;;;;;;;92.70;38.50;;;5.90;99.90;;;;;;4989087;28;20231;-81
2021/12/04 01:55:31;;;;;;;91.73;38.30;;;5.90;99.90;;;;;;4988758;28;20796;-82
2021/12/04 01:58:00;;;;;;;93.37;38.60;;;6.00;99.90;;;;;;4989244;28;20196;-82
2021/12/04 02:00:29;;;;;;;92.63;40.37;;;6.00;99.90;;;;;;4987924;28;20235;-79
2021/12/04 02:02:56;;;;;;;93.57;40.77;;;6.00;99.90;;;;;;4989227;28;20223;-79
2021/12/04 02:05:24;;;;;;;91.10;40.93;;;6.00;99.90;;;;;;4989450;28;20220;-82
2021/12/04 02:07:51;;;;;;;91.00;39.50;;;6.00;99.90;;;;;;4990260;28;20212;-82
2021/12/04 02:10:18;;;;;;;110.20;43.30;;;6.00;99.90;;;;;;4989232;28;20196;-82
2021/12/04 02:12:45;;;;;;;104.53;42.43;;;6.00;99.90;;;;;;4989670;28;20196;-83
2021/12/04 02:15:14;;;;;;;102.37;43.93;;;6.00;99.90;;;;;;4987730;28;20216;-82
2021/12/04 02:17:45;;;;;;;99.90;41.87;;;6.00;99.90;;;;;;4988564;28;20597;-81
2021/12/04 02:20:17;;;;;;;95.53;40.47;;;6.00;99.90;;;;;;4989024;28;20588;-80
2021/12/04 02:22:44;;;;;;;98.43;40.63;;;6.00;99.90;;;;;;4988417;28;20243;-82
2021/12/04 02:25:11;;;;;;;108.13;44.10;;;6.00;99.90;;;;;;4989304;28;20604;-84
2021/12/04 02:27:39;;;;;;;98.40;40.23;;;6.00;99.90;;;;;;4988809;28;20596;-84
2021/12/04 02:30:12;;;;;;;102.67;43.23;;;6.00;99.90;;;;;;4989855;28;20211;-80
2021/12/04 02:32:39;;;;;;;94.53;42.07;;;6.00;99.90;;;;;;4972889;28;20203;-84
2021/12/04 02:35:09;;;;;;;106.67;41.97;;;6.00;99.90;;;;;;4989022;28;20208;-81
2021/12/04 02:37:39;;;;;;;115.50;44.60;;;6.10;99.90;;;;;;4989590;28;20196;-80
2021/12/04 02:40:08;;;;;;;104.50;42.73;;;6.00;99.90;;;;;;4989329;28;20283;-82
2021/12/04 02:42:35;;;;;;;127.93;45.53;;;6.10;99.90;;;;;;4988024;28;20227;-84
2021/12/04 02:45:05;;;;;;;115.43;43.77;;;6.10;99.90;;;;;;4989583;28;20622;-81
2021/12/04 02:47:31;;;;;;;115.83;44.73;;;6.10;99.90;;;;;;4988791;28;20212;-82
2021/12/04 02:49:58;;;;;;;123.17;46.17;;;6.10;99.90;;;;;;4988553;28;20204;-78
2021/12/04 02:52:26;;;;;;;125.60;45.97;;;6.10;99.90;;;;;;4988886;28;20232;-80
2021/12/04 02:54:54;;;;;;;104.63;43.37;;;6.00;99.90;;;;;;4971030;28;20217;-81
2021/12/04 02:57:22;;;;;;;126.50;44.90;;;6.00;99.90;;;;;;4968776;28;20244;-80
2021/12/04 02:59:50;;;;;;;118.00;44.87;;;6.00;99.90;;;;;;4969126;28;20487;-81
2021/12/04 03:02:19;;;;;;;119.97;43.33;;;6.10;99.90;;;;;;4984544;28;20235;-81
2021/12/04 03:04:47;;;;;;;114.20;44.17;;;6.00;99.90;;;;;;4987088;28;20675;-82
2021/12/04 03:07:14;;;;;;;122.27;46.27;;;6.10;99.90;;;;;;4987676;28;20215;-83
2021/12/04 03:09:41;;;;;;;114.50;45.07;;;6.00;99.90;;;;;;4991824;28;20212;-81
2021/12/04 03:12:11;;;;;;;114.93;45.63;;;6.10;99.90;;;;;;4974279;28;20209;-83
2021/12/04 03:14:39;;;;;;;124.30;46.17;;;6.10;99.90;;;;;;4976613;28;20223;-81
2021/12/04 03:17:06;;;;;;;127.27;45.50;;;6.10;99.90;;;;;;4991199;28;20208;-83
2021/12/04 03:19:35;;;;;;;110.70;44.43;;;6.10;99.90;;;;;;4991226;28;20588;-82
2021/12/04 03:22:03;;;;;;;124.73;48.30;;;6.10;99.90;;;;;;4992953;28;20906;-80
2021/12/04 03:24:30;;;;;;;119.87;46.20;;;6.10;99.90;;;;;;4991560;28;20250;-84
2021/12/04 03:26:57;;;;;;;135.03;48.07;;;6.10;99.90;;;;;;4992795;28;20200;-83
2021/12/04 03:29:28;;;;;;;139.90;48.10;;;6.10;99.90;;;;;;4991719;28;20236;-84
2021/12/04 03:32:14;;;;;;;117.37;46.93;;;6.10;99.90;;;;;;4991865;28;20200;-82
2021/12/04 03:40:23;;;;;;;133.50;47.30;;;6.10;99.90;;;;;;4971702;28;20538;-81
2021/12/04 03:42:53;;;;;;;136.30;46.33;;;6.10;99.90;;;;;;4971762;28;20523;-81
2021/12/04 03:45:21;;;;;;;106.37;42.80;;;6.10;99.90;;;;;;4986200;28;20196;-81
2021/12/04 03:47:49;;;;;;;131.73;47.30;;;6.10;99.90;;;;;;4991647;28;20219;-82
2021/12/04 03:50:18;;;;;;;113.57;44.87;;;6.10;99.90;;;;;;4991491;28;20210;-83
2021/12/04 03:52:45;;;;;;;121.47;44.40;;;6.10;99.90;;;;;;4991085;28;20291;-81
2021/12/04 03:55:12;;;;;;;111.17;42.40;;;6.10;99.90;;;;;;4991341;28;20211;-81
2021/12/04 03:57:44;;;;;;;125.40;45.93;;;6.10;99.90;;;;;;4991268;28;20204;-83
2021/12/04 04:00:13;;;;;;;125.77;43.70;;;6.20;99.90;;;;;;4984263;28;20779;-83
2021/12/04 04:02:41;;;;;;;106.60;42.37;;;6.20;99.90;;;;;;4972594;28;20256;-81
2021/12/04 04:05:09;;;;;;;141.37;43.90;;;6.20;99.90;;;;;;4971470;28;20225;-82
2021/12/04 04:07:36;;;;;;;127.90;45.57;;;6.20;99.90;;;;;;4969885;28;20219;-82
2021/12/04 04:10:04;;;;;;;95.77;38.60;;;6.20;99.90;;;;;;4985045;28;20241;-80
2021/12/04 04:12:31;;;;;;;94.40;36.93;;;6.10;99.90;;;;;;4991069;28;20197;-81
2021/12/04 04:14:58;;;;;;;109.10;41.00;;;6.20;99.90;;;;;;4990684;28;20203;-79
2021/12/04 04:17:26;;;;;;;99.83;38.10;;;6.20;99.90;;;;;;4990238;28;20873;-81
2021/12/04 04:19:54;;;;;;;110.83;40.13;;;6.20;99.90;;;;;;4990712;28;20372;-81
2021/12/04 04:22:21;;;;;;;94.87;39.43;;;6.20;99.90;;;;;;4990723;28;20219;-82
2021/12/04 04:24:48;;;;;;;98.93;38.17;;;6.20;99.90;;;;;;4989036;28;20200;-83
2021/12/04 04:27:15;;;;;;;90.87;35.43;;;6.20;99.90;;;;;;4971646;28;20201;-82
2021/12/04 04:29:42;;;;;;;119.90;41.57;;;6.20;99.90;;;;;;4983389;28;20275;-82
2021/12/04 04:32:08;;;;;;;119.17;41.97;;;6.20;99.90;;;;;;4990779;28;20219;-81
2021/12/04 04:34:37;;;;;;;106.33;37.53;;;6.20;99.90;;;;;;4989411;28;20208;-80
2021/12/04 04:37:16;;;;;;;101.20;39.30;;;6.20;99.90;;;;;;4989770;28;20267;-80
2021/12/04 04:59:08;;;;;;;98.10;35.87;;;6.20;99.90;;;;;;4985786;28;20236;-82
2021/12/04 05:12:47;;;;;;;112.93;39.57;;;6.30;99.90;;;;;;4980756;28;20503;-81
2021/12/04 05:15:17;;;;;;;118.67;41.93;;;6.30;99.90;;;;;;4971930;28;20200;-79
2021/12/04 05:17:55;;;;;;;113.67;40.63;;;6.30;99.90;;;;;;4970515;28;20213;-82
2021/12/04 05:20:27;;;;;;;138.73;45.07;;;6.30;99.90;;;;;;4989864;28;20215;-80
2021/12/04 05:22:53;;;;;;;118.60;42.63;;;6.30;99.90;;;;;;4989859;28;20629;-82
2021/12/04 05:25:22;;;;;;;131.83;42.67;;;6.30;99.90;;;;;;4989953;28;20675;-81
2021/12/04 05:27:48;;;;;;;146.80;42.83;;;6.30;99.90;;;;;;4989455;28;20241;-81
2021/12/04 05:30:15;;;;;;;119.07;40.83;;;6.30;99.90;;;;;;4988818;28;20204;-81
2021/12/04 05:32:42;;;;;;;159.30;46.07;;;6.30;99.90;;;;;;4990084;28;20570;-82
2021/12/04 05:35:10;;;;;;;155.77;45.27;;;6.30;99.90;;;;;;4990417;28;20215;-83
2021/12/04 05:37:36;;;;;;;138.20;42.37;;;6.20;99.90;;;;;;4988836;28;20208;-83
2021/12/04 05:40:06;;;;;;;123.30;44.67;;;6.30;99.90;;;;;;4970022;28;20211;-82
2021/12/04 05:42:34;;;;;;;138.33;42.87;;;6.30;99.90;;;;;;4970201;28;20221;-81
2021/12/04 05:45:01;;;;;;;153.67;45.83;;;6.30;99.90;;;;;;4981561;28;20215;-81
2021/12/04 05:47:33;;;;;;;154.83;44.80;;;6.30;99.90;;;;;;4989400;28;20593;-83
2021/12/04 05:50:12;;;;;;;128.57;42.43;;;6.30;99.90;;;;;;4990078;28;20200;-82
2021/12/04 05:52:40;;;;;;;127.50;40.93;;;6.30;99.90;;;;;;4988173;28;20664;-81
2021/12/04 05:55:12;;;;;;;137.90;44.23;;;6.20;99.90;;;;;;4988940;28;20202;-80
2021/12/04 05:57:40;;;;;;;115.37;38.27;;;6.20;99.90;;;;;;4989547;28;20714;-82
2021/12/04 06:00:10;;;;;;;140.60;41.90;;;6.20;99.90;;;;;;4989357;28;20204;-79
2021/12/04 06:02:37;;;;;;;135.33;41.23;;;6.30;99.90;;;;;;4988903;28;20763;-80
2021/12/04 06:05:05;;;;;;;136.37;41.67;;;6.20;99.90;;;;;;4990140;28;20215;-81
2021/12/04 06:07:31;;;;;;;123.67;38.67;;;6.20;99.90;;;;;;4989404;28;20211;-82
2021/12/04 06:09:58;;;;;;;114.33;39.33;;;6.30;99.90;;;;;;4988809;28;20219;-79
2021/12/04 06:12:25;;;;;;;128.87;40.33;;;6.30;99.90;;;;;;4986759;28;20211;-81
2021/12/04 06:14:53;;;;;;;127.57;39.40;;;6.20;99.90;;;;;;4989714;28;20259;-82
2021/12/04 06:17:20;;;;;;;134.53;39.23;;;6.20;99.90;;;;;;4989849;28;20204;-80
2021/12/04 06:22:38;;;;;;;136.20;38.73;;;6.20;99.90;;;;;;4989000;28;20202;-82
2021/12/04 06:25:06;;;;;;;144.93;39.63;;;6.20;99.90;;;;;;4987736;28;20222;-82
2021/12/04 06:27:33;;;;;;;134.87;38.80;;;6.20;99.90;;;;;;4968878;28;20209;-81
2021/12/04 06:30:01;;;;;;;142.87;38.77;;;6.20;99.90;;;;;;4969511;28;20204;-81
2021/12/04 06:32:28;;;;;;;136.57;36.10;;;6.20;99.90;;;;;;4969736;28;20208;-82
2021/12/04 06:34:55;;;;;;;134.50;37.23;;;6.20;99.90;;;;;;4968972;28;20340;-81
2021/12/04 06:37:22;;;;;;;129.17;34.87;;;6.20;99.90;;;;;;4985104;28;20523;-81
2021/12/04 06:39:49;;;;;;;122.77;36.83;;;6.10;99.90;;;;;;4989078;28;20219;-82
2021/12/04 06:42:16;;;;;;;119.33;36.03;;;6.10;99.90;;;;;;4989200;28;20208;-83
2021/12/04 06:44:43;;;;;;;130.87;34.37;;;6.10;99.90;;;;;;4992112;28;20238;-81
2021/12/04 06:47:11;;;;;;;127.53;37.27;;;6.10;99.90;;;;;;4992787;28;20222;-79
2021/12/04 06:49:41;;;;;;;126.97;37.70;;;6.20;99.90;;;;;;4993127;28;20212;-81
2021/12/04 06:52:12;;;;;;;109.67;37.07;;;6.10;99.90;;;;;;4993306;28;20246;-81
2021/12/04 06:54:43;;;;;;;107.47;34.33;;;6.10;99.90;;;;;;4994781;28;20290;-82
2021/12/04 06:57:10;;;;;;;130.90;36.83;;;6.10;99.90;;;;;;5005292;28;20200;-81
2021/12/04 06:59:39;;;;;;;125.47;36.77;;;6.10;99.90;;;;;;5001309;28;20203;-82
2021/12/04 07:02:06;;;;;;;131.17;36.63;;;6.10;99.90;;;;;;5005562;28;20227;-81
2021/12/04 07:04:37;;;;;;;121.07;36.27;;;6.20;99.90;;;;;;5003740;28;20227;-82
2021/12/04 07:07:04;;;;;;;124.67;36.60;;;6.10;99.90;;;;;;4996152;28;20576;-81
2021/12/04 07:09:32;;;;;;;125.43;37.23;;;6.10;99.90;;;;;;4990839;28;20208;-81
2021/12/04 07:12:00;;;;;;;117.30;33.67;;;6.10;99.90;;;;;;4992244;28;20615;-83
2021/12/04 07:14:27;;;;;;;118.23;33.10;;;6.10;99.90;;;;;;4990768;28;20610;-80
2021/12/04 07:16:54;;;;;;;118.23;35.47;;;6.10;99.90;;;;;;4991556;28;20199;-80
2021/12/04 07:19:21;;;;;;;118.47;34.93;;;6.10;99.90;;;;;;4991912;28;20212;-82
2021/12/04 07:21:50;;;;;;;117.47;34.33;;;6.10;99.90;;;;;;4986896;28;20208;-79
2021/12/04 07:24:17;;;;;;;136.20;38.70;;;6.10;99.90;;;;;;4971574;28;20263;-81
2021/12/04 07:26:44;;;;;;;155.20;37.60;;;6.10;99.90;;;;;;4972010;28;20230;-81
2021/12/04 07:29:11;;;;;;;119.30;36.40;;;6.10;99.90;;;;;;4984409;28;20208;-81
2021/12/04 07:31:38;;;;;;;145.47;36.20;;;6.10;99.90;;;;;;4989743;28;20211;-81
2021/12/04 07:34:06;;;;;;;153.07;38.77;;;6.10;99.90;;;;;;4979470;28;20216;-82
2021/12/04 07:36:33;;;;;;;135.10;37.37;;;6.10;99.90;;;;;;4971242;28;20543;-80
2021/12/04 07:39:02;;;;;;;138.17;38.17;;;6.10;99.90;;;;;;4949005;28;20448;-80
2021/12/04 07:41:29;;;;;;;155.17;37.83;;;6.10;99.90;;;;;;4971138;28;20212;-81
2021/12/04 07:43:56;;;;;;;164.53;40.97;;;6.00;99.90;;;;;;4975155;28;20584;-81
2021/12/04 07:46:23;;;;;;;168.97;38.00;;;6.10;99.90;;;;;;4990358;28;20294;-85
2021/12/04 07:48:50;;;;;;;146.10;39.50;;;6.10;99.90;;;;;;4990904;28;20487;-81
2021/12/04 07:51:18;;;;;;;153.00;39.40;;;6.10;99.90;;;;;;4989639;28;20227;-78
2021/12/04 07:53:47;;;;;;;129.83;38.47;;;6.10;99.90;;;;;;4990736;28;20199;-81
2021/12/04 07:56:18;;;;;;;123.87;37.10;;;6.10;99.90;;;;;;4972780;28;20240;-80
2021/12/04 07:58:45;;;;;;;127.67;37.13;;;6.10;99.90;;;;;;4969968;28;20204;-78
2021/12/04 08:01:13;;;;;;;152.07;38.57;;;6.10;99.90;;;;;;4970816;28;20300;-81
2021/12/04 08:03:40;;;;;;;136.00;35.50;;;6.10;99.90;;;;;;4970792;28;20240;-80
2021/12/04 08:06:07;;;;;;;120.57;37.03;;;6.10;99.90;;;;;;4969879;28;20215;-79
2021/12/04 08:08:34;;;;;;;141.73;36.73;;;6.10;99.90;;;;;;4970268;28;20209;-81
2021/12/04 08:11:03;;;;;;;140.10;37.07;;;6.10;99.90;;;;;;4986551;28;20204;-80
2021/12/04 08:13:32;;;;;;;146.27;35.53;;;6.10;99.90;;;;;;4989088;28;20639;-82
2021/12/04 08:15:59;;;;;;;119.47;36.77;;;6.10;99.90;;;;;;4972412;28;20605;-80
2021/12/04 08:18:25;;;;;;;147.63;36.97;;;6.10;99.90;;;;;;4971177;28;20201;-82
2021/12/04 08:20:52;;;;;;;151.33;38.67;;;6.10;99.90;;;;;;4973491;28;20207;-81
2021/12/04 08:23:19;;;;;;;149.40;38.13;;;6.10;99.90;;;;;;4989984;28;20215;-80
2021/12/04 08:25:47;;;;;;;148.00;39.20;;;6.10;99.90;;;;;;4978512;28;20633;-81
2021/12/04 08:28:14;;;;;;;164.00;41.67;;;6.10;99.90;;;;;;4969297;28;20211;-80
2021/12/04 08:30:45;;;;;;;146.37;38.47;;;6.10;99.90;;;;;;4969018;28;20217;-80
2021/12/04 08:33:13;;;;;;;140.70;37.70;;;6.20;99.90;;;;;;4982121;28;20235;-80
2021/12/04 08:35:41;;;;;;;146.57;39.50;;;6.20;99.90;;;;;;4989112;28;20204;-81
2021/12/04 08:38:08;;;;;;;139.37;38.07;;;6.20;99.90;;;;;;4989120;28;20207;-79
2021/12/04 08:40:36;;;;;;;135.83;41.50;;;6.20;99.90;;;;;;4988725;28;20215;-80
2021/12/04 08:43:04;;;;;;;149.57;39.50;;;6.20;99.90;;;;;;4988673;28;20214;-80
2021/12/04 08:45:31;;;;;;;156.77;41.00;;;6.20;99.90;;;;;;4988488;28;20399;-82
2021/12/04 08:47:59;;;;;;;135.23;37.10;;;6.20;99.90;;;;;;4988356;28;20204;-80
2021/12/04 08:50:30;;;;;;;134.43;38.50;;;6.20;99.90;;;;;;4984347;28;20209;-79
2021/12/04 08:52:58;;;;;;;172.03;41.20;;;6.20;99.90;;;;;;4968285;28;20232;-81
2021/12/04 08:55:26;;;;;;;137.37;39.03;;;6.20;99.90;;;;;;4969031;28;20204;-80
2021/12/04 08:57:54;;;;;;;142.90;40.03;;;6.20;99.90;;;;;;4970534;28;20227;-81
2021/12/04 09:00:24;;;;;;;134.57;38.33;;;6.20;99.90;;;;;;4969364;28;20207;-80
2021/12/04 09:02:52;;;;;;;145.43;38.60;;;6.20;99.90;;;;;;4976473;28;20208;-82
2021/12/04 09:05:21;;;;;;;126.20;36.03;;;6.20;99.90;;;;;;4987816;28;20235;-81
2021/12/04 09:07:49;;;;;;;130.47;36.57;;;6.20;99.90;;;;;;4988129;28;20608;-80
2021/12/04 09:10:17;;;;;;;124.67;37.00;;;6.10;99.90;;;;;;4988993;28;20215;-80
2021/12/04 09:12:46;;;;;;;153.87;38.97;;;6.20;99.90;;;;;;4988107;28;20208;-83
2021/12/04 09:15:17;;;;;;;137.70;37.30;;;6.20;99.90;;;;;;4987703;28;20620;-79
2021/12/04 09:17:43;;;;;;;123.73;37.50;;;6.20;99.90;;;;;;4987806;28;20204;-80
2021/12/04 09:20:15;;;;;;;132.30;37.17;;;6.20;99.90;;;;;;4978449;28;20216;-78
2021/12/04 09:22:44;;;;;;;157.37;40.10;;;6.20;99.90;;;;;;4967882;28;20196;-80
2021/12/04 09:25:15;;;;;;;145.30;37.37;;;6.20;99.90;;;;;;4968987;28;20543;-80
2021/12/04 09:28:00;;;;;;;134.63;36.40;;;6.20;99.90;;;;;;4968593;28;20206;-80
2021/12/04 10:00:54;;;;;;;87.40;27.23;;;6.10;99.90;;;;;;4986504;28;20251;-77
2021/12/04 10:12:41;;;;;;;73.73;24.50;;;6.20;99.90;;;;;;4919720;29;20209;-78
2021/12/04 10:15:43;;;;;;;72.23;23.00;;;6.20;99.90;;;;;;4925954;29;20206;-79
2021/12/04 10:21:13;;;;;;;68.70;22.57;;;6.20;99.90;;;;;;4971302;28;20284;-82
2021/12/04 10:32:25;;;;;;;63.83;22.40;;;6.00;99.90;;;;;;4990733;28;20219;-78
2021/12/04 10:34:55;;;;;;;71.73;26.00;;;6.00;99.90;;;;;;4990286;28;20258;-77
2021/12/04 10:37:25;;;;;;;78.17;26.80;;;5.90;99.90;;;;;;4989704;28;20207;-79
2021/12/04 10:39:52;;;;;;;73.03;27.80;;;5.90;99.90;;;;;;4989972;28;20200;-77
2021/12/04 10:42:22;;;;;;;74.80;27.57;;;5.90;99.90;;;;;;4990560;28;20694;-77
2021/12/04 10:44:54;;;;;;;81.63;27.57;;;5.90;99.90;;;;;;4990097;28;20238;-78
2021/12/04 10:47:24;;;;;;;84.13;27.50;;;5.90;99.90;;;;;;4990223;28;20302;-79
2021/12/04 10:49:57;;;;;;;79.30;26.27;;;5.90;99.90;;;;;;4989651;28;20196;-78
2021/12/04 10:52:32;;;;;;;72.57;25.83;;;5.90;99.90;;;;;;4972883;28;20327;-77
2021/12/04 10:55:16;;;;;;;71.70;24.87;;;5.90;99.90;;;;;;4969802;28;20813;-75
2021/12/04 10:58:15;;;;;;;74.60;28.10;;;5.90;99.90;;;;;;4971100;28;20211;-79
2021/12/04 11:00:51;;;;;;;72.63;25.70;;;5.90;99.90;;;;;;4970622;28;20211;-78
2021/12/04 11:03:33;;;;;;;74.40;27.17;;;5.80;99.90;;;;;;4972148;28;20750;-79
2021/12/04 11:28:45;;;;;;;82.80;29.13;;;6.10;99.90;;;;;;4954360;28;20246;-84
2021/12/04 11:37:02;;;;;;;78.20;27.33;;;6.00;99.90;;;;;;4988685;28;20212;-78
2021/12/04 11:42:22;;;;;;;79.07;28.30;;;6.10;99.90;;;;;;4987117;28;20624;-83
2021/12/04 11:44:56;;;;;;;91.67;31.90;;;6.00;99.90;;;;;;4981628;28;20230;-82
2021/12/04 11:47:23;;;;;;;92.50;32.07;;;6.10;99.90;;;;;;4990684;28;20214;-84
2021/12/04 11:49:51;;;;;;;87.90;30.73;;;6.10;99.90;;;;;;4990576;28;20204;-80
2021/12/04 11:52:20;;;;;;;76.50;28.23;;;6.10;99.90;;;;;;4990397;28;20246;-84
2021/12/04 11:54:58;;;;;;;95.80;32.90;;;6.10;99.90;;;;;;4975382;28;20208;-78
2021/12/04 11:57:29;;;;;;;99.13;32.37;;;6.10;99.90;;;;;;4971593;28;20233;-82
2021/12/04 12:00:09;;;;;;;93.77;31.83;;;6.20;99.90;;;;;;4971555;28;20205;-80
2021/12/04 12:02:36;;;;;;;94.27;30.23;;;6.20;99.90;;;;;;4969300;28;20213;-79
2021/12/04 12:05:12;;;;;;;95.73;32.57;;;6.20;99.90;;;;;;4968924;28;20237;-80
2021/12/04 12:07:51;;;;;;;91.33;30.37;;;6.20;99.90;;;;;;4977863;28;20211;-80
2021/12/04 12:10:18;;;;;;;87.67;31.13;;;6.20;99.90;;;;;;4988444;28;20195;-79
2021/12/04 12:12:48;;;;;;;91.23;31.13;;;6.20;99.90;;;;;;4983984;28;20216;-79
2021/12/04 12:15:23;;;;;;;91.50;31.10;;;6.20;99.90;;;;;;4970622;28;20196;-83
2021/12/04 12:17:51;;;;;;;82.50;30.40;;;6.20;99.90;;;;;;4971251;28;20212;-80
2021/12/04 12:20:38;;;;;;;88.00;30.63;;;6.20;99.90;;;;;;4973008;28;20208;-81
2021/12/04 12:23:08;;;;;;;85.17;30.77;;;6.30;99.90;;;;;;4992154;28;20196;-86
2021/12/04 12:25:54;;;;;;;98.47;33.87;;;6.30;99.90;;;;;;4989793;28;20224;-86
2021/12/04 12:34:05;;;;;;;85.27;31.07;;;6.30;99.90;;;;;;4973988;28;20648;-85
2021/12/04 12:36:33;;;;;;;96.33;33.50;;;6.30;99.90;;;;;;4991691;28;20207;-84
2021/12/04 12:39:14;;;;;;;91.13;33.07;;;6.30;99.90;;;;;;4991344;28;20215;-79
2021/12/04 12:41:45;;;;;;;81.63;29.77;;;6.30;99.90;;;;;;4987746;28;20742;-80
2021/12/04 12:44:15;;;;;;;84.07;31.40;;;6.30;99.90;;;;;;4991804;28;20219;-85
2021/12/04 12:46:43;;;;;;;74.33;29.77;;;6.30;99.90;;;;;;4991886;28;20498;-89
2021/12/04 12:49:23;;;;;;;82.07;30.37;;;6.40;99.90;;;;;;4993780;28;20204;-94
2021/12/04 12:51:58;;;;;;;78.70;30.93;;;6.40;99.90;;;;;;4974649;28;20536;-89
2021/12/04 12:54:28;;;;;;;95.73;34.33;;;6.40;99.90;;;;;;4973735;28;20219;-85
2021/12/04 12:57:01;;;;;;;83.63;31.87;;;6.40;99.90;;;;;;4975358;28;20209;-85
2021/12/04 12:59:56;;;;;;;80.13;28.60;;;6.40;99.90;;;;;;4971559;28;20319;-77
2021/12/04 13:13:52;;;;;;;65.57;27.50;;;6.50;99.90;;;;;;4970322;28;20192;-80
2021/12/04 13:16:22;;;;;;;61.47;25.97;;;6.40;99.90;;;;;;4970083;28;20209;-82
2021/12/04 13:18:56;;;;;;;65.20;26.03;;;6.50;99.90;;;;;;4970207;28;20247;-83
2021/12/04 13:21:24;;;;;;;55.87;24.97;;;6.50;99.90;;;;;;4969402;28;20213;-84
2021/12/04 13:23:57;;;;;;;58.30;24.30;;;6.40;99.90;;;;;;4969892;28;20212;-85
2021/12/04 13:26:27;;;;;;;53.07;22.90;;;6.50;99.90;;;;;;4970549;28;20625;-78
2021/12/04 13:28:54;;;;;;;52.70;23.67;;;6.50;99.90;;;;;;4970813;28;20228;-82
2021/12/04 13:31:22;;;;;;;41.27;19.07;;;6.50;99.90;;;;;;4971954;28;20205;-82
2021/12/04 13:33:51;;;;;;;44.47;21.53;;;6.50;99.90;;;;;;4969638;28;20196;-81
2021/12/04 13:36:20;;;;;;;50.93;20.53;;;6.50;99.90;;;;;;4969029;28;20297;-82
2021/12/04 13:38:47;;;;;;;49.20;21.27;;;6.50;99.90;;;;;;4979440;28;20208;-79
2021/12/04 13:41:15;;;;;;;46.70;21.13;;;6.50;99.90;;;;;;4987219;28;20208;-80
2021/12/04 13:43:42;;;;;;;38.73;19.53;;;6.50;99.90;;;;;;4986627;28;20199;-80
2021/12/04 13:46:09;;;;;;;30.17;13.87;;;6.50;99.90;;;;;;4986299;28;20224;-78
2021/12/04 13:48:36;;;;;;;21.60;9.10;;;6.50;99.90;;;;;;4987048;28;20208;-79
2021/12/04 13:51:03;;;;;;;14.63;5.90;;;6.60;99.90;;;;;;4986387;28;20211;-77
2021/12/04 13:53:33;;;;;;;6.27;3.67;;;6.60;99.90;;;;;;4986381;28;20240;-80
2021/12/04 13:56:03;;;;;;;4.53;2.20;;;6.50;99.90;;;;;;4986706;28;20697;-79
2021/12/04 13:58:32;;;;;;;1.83;0.70;;;6.60;99.90;;;;;;4985117;28;20212;-79
2021/12/04 14:01:00;;;;;;;1.13;0.77;;;6.60;99.90;;;;;;4986597;28;20204;-79
2021/12/04 14:03:32;;;;;;;1.43;0.80;;;6.50;99.90;;;;;;4986994;28;20855;-80
2021/12/04 14:05:59;;;;;;;1.60;1.50;;;6.50;99.90;;;;;;4971210;28;20216;-78
2021/12/04 14:08:26;;;;;;;4.30;1.13;;;6.50;99.90;;;;;;4967881;28;20209;-79
2021/12/04 14:10:53;;;;;;;5.27;1.07;;;6.50;99.90;;;;;;4980718;28;20222;-79
2021/12/04 14:13:24;;;;;;;2.60;0.80;;;6.60;99.90;;;;;;4982266;28;20208;-81
2021/12/04 14:15:55;;;;;;;7.20;1.27;;;6.60;99.90;;;;;;4970221;28;20199;-83
2021/12/04 14:18:26;;;;;;;1.97;1.10;;;6.60;99.90;;;;;;4968235;28;20267;-82
2021/12/04 14:20:55;;;;;;;4.17;2.47;;;6.60;99.90;;;;;;4969493;28;20256;-81
2021/12/04 14:23:25;;;;;;;5.70;3.17;;;6.60;99.90;;;;;;4969854;28;20336;-82
2021/12/04 14:25:54;;;;;;;2.63;1.60;;;6.60;99.90;;;;;;4968786;28;20275;-81
2021/12/04 14:28:24;;;;;;;1.80;1.20;;;6.60;99.90;;;;;;4968422;28;20212;-80
2021/12/04 14:30:53;;;;;;;2.63;1.03;;;6.60;99.90;;;;;;4967865;28;20577;-80
2021/12/04 14:33:24;;;;;;;1.47;0.80;;;6.70;99.90;;;;;;4967984;28;20200;-81
2021/12/04 14:35:53;;;;;;;2.60;0.80;;;6.70;99.90;;;;;;4969187;28;20215;-80
2021/12/04 14:38:24;;;;;;;3.03;0.70;;;6.70;99.90;;;;;;4968351;28;20859;-78
2021/12/04 14:40:55;;;;;;;2.20;1.03;;;6.70;99.90;;;;;;4967808;28;20215;-79
2021/12/04 14:43:24;;;;;;;4.53;1.10;;;6.70;99.90;;;;;;4968744;28;20291;-81
2021/12/04 14:45:56;;;;;;;4.67;1.10;;;6.70;99.90;;;;;;4968056;28;20314;-81
2021/12/04 14:48:26;;;;;;;6.50;0.93;;;6.70;99.90;;;;;;4968284;28;20566;-81
2021/12/04 14:50:58;;;;;;;6.53;1.33;;;6.80;99.90;;;;;;4986521;28;20217;-80
2021/12/04 14:53:25;;;;;;;4.17;1.20;;;6.90;99.90;;;;;;4986173;28;20242;-80
2021/12/04 14:55:53;;;;;;;2.77;1.40;;;6.90;99.90;;;;;;4988907;28;20193;-82
2021/12/04 14:58:22;;;;;;;3.90;1.27;;;6.90;99.90;;;;;;4987865;28;20199;-78
2021/12/04 15:00:50;;;;;;;11.87;2.90;;;7.00;99.90;;;;;;4986088;28;20207;-80
2021/12/04 15:03:21;;;;;;;9.00;2.30;;;7.00;99.90;;;;;;4986125;28;20224;-80
2021/12/04 15:05:51;;;;;;;6.13;2.43;;;7.00;99.90;;;;;;4990799;28;20294;-80
2021/12/04 15:08:22;;;;;;;20.03;11.23;;;7.10;99.90;;;;;;4976538;28;20220;-82
2021/12/04 15:10:57;;;;;;;15.83;4.17;;;7.10;99.90;;;;;;4972947;28;20201;-82
2021/12/04 15:13:27;;;;;;;7.67;2.50;;;7.00;99.90;;;;;;4972559;28;20208;-80
2021/12/04 15:15:59;;;;;;;6.50;2.47;;;7.00;99.90;;;;;;4978227;28;20211;-84